Time;durP1;ratioP1;P1;durP2;ratioP2;P2;SDS_P1;SDS_P2;PMS_P1;PMS_P2;Temp;Humidity;BMP_temperature;BMP_pressure;BME280_temperature;BME280_humidity;BME280_pressure;Samples;Min_cycle;Max_cycle;Signal;HPM_P1;HPM_P2
2023/05/17 00:09:52;;;;;;;;;;;15.10;35.10;;;;;;21248255;28;20006;-61
2023/05/17 00:19:53;;;;;;;;;;;15.10;35.30;;;;;;21247214;28;20014;-61
2023/05/17 00:29:53;;;;;;;;;;;14.90;35.80;;;;;;21248483;28;20279;-61
2023/05/17 00:39:54;;;;;;;;;;;14.70;35.80;;;;;;21246279;28;19946;-61
2023/05/17 00:49:55;;;;;;;;;;;14.60;36.00;;;;;;21259435;27;19927;-60
2023/05/17 00:59:56;;;;;;;;;;;14.30;36.10;;;;;;21262717;27;20012;-61
2023/05/17 01:09:57;;;;;;;;;;;14.20;36.40;;;;;;21261491;27;19923;-60
2023/05/17 01:20:07;;;;;;;;;;;14.10;36.20;;;;;;21260376;27;20368;-60
2023/05/17 01:30:09;;;;;;;;;;;13.70;36.90;;;;;;21260710;27;19924;-60
2023/05/17 01:40:10;;;;;;;;;;;13.60;37.30;;;;;;21260213;27;19931;-60
2023/05/17 01:50:13;;;;;;;;;;;13.50;37.50;;;;;;21259757;27;19923;-59
2023/05/17 02:00:13;;;;;;;;;;;13.40;37.40;;;;;;21258361;27;19924;-61
2023/05/17 02:10:14;;;;;;;;;;;13.20;37.80;;;;;;21257712;27;19923;-60
2023/05/17 02:20:15;;;;;;;;;;;13.10;38.00;;;;;;21256379;27;20024;-60
2023/05/17 02:30:16;;;;;;;;;;;12.90;38.00;;;;;;21254973;27;19965;-60
2023/05/17 02:40:16;;;;;;;;;;;13.00;37.90;;;;;;21255572;27;20400;-60
2023/05/17 02:50:17;;;;;;;;;;;12.70;38.40;;;;;;21254557;27;19923;-59
2023/05/17 03:00:18;;;;;;;;;;;12.70;38.60;;;;;;21254091;27;20006;-61
2023/05/17 03:10:18;;;;;;;;;;;12.60;39.20;;;;;;21252328;27;19975;-60
2023/05/17 03:20:19;;;;;;;;;;;12.40;39.90;;;;;;21251110;27;19923;-60
2023/05/17 03:30:19;;;;;;;;;;;12.20;41.00;;;;;;21251328;27;19930;-60
2023/05/17 03:40:20;;;;;;;;;;;;;;;;;;21250928;27;20328;-60
2023/05/17 03:50:21;;;;;;;;;;;;;;;;;;21250509;27;19923;-61
2023/05/17 04:00:23;;;;;;;;;;;;;;;;;;21248699;27;19923;-60
2023/05/17 04:10:24;;;;;;;;;;;;;;;;;;21249775;28;20375;-61
2023/05/17 04:20:25;;;;;;;;;;;;;;;;;;21254744;27;19923;-60
2023/05/17 04:30:26;;;;;;;;;;;;;;;;;;21265913;27;19927;-61
2023/05/17 04:40:27;;;;;;;;;;;;;;;;;;21263589;27;19924;-61
2023/05/17 04:50:28;;;;;;;;;;;;;;;;;;21263461;27;20368;-60
2023/05/17 05:00:29;;;;;;;;;;;;;;;;;;21262691;27;19923;-60
2023/05/17 05:10:30;;;;;;;;;;;11.60;45.30;;;;;;21261842;27;19970;-61
2023/05/17 05:20:30;;;;;;;;;;;11.60;45.50;;;;;;21259510;27;20014;-59
2023/05/17 05:30:31;;;;;;;;;;;11.60;45.40;;;;;;21260370;27;19971;-62
2023/05/17 05:40:32;;;;;;;;;;;11.60;45.00;;;;;;21258839;27;20027;-61
2023/05/17 05:50:33;;;;;;;;;;;11.60;44.70;;;;;;21259357;27;20369;-62
2023/05/17 06:00:34;;;;;;;;;;;11.70;44.80;;;;;;21257218;27;19930;-61
2023/05/17 06:10:34;;;;;;;;;;;11.90;44.30;;;;;;21257763;27;19927;-61
2023/05/17 06:20:35;;;;;;;;;;;11.50;45.10;;;;;;21256996;27;20006;-61
2023/05/17 06:30:36;;;;;;;;;;;11.70;44.10;;;;;;21255333;27;20014;-61
2023/05/17 06:40:36;;;;;;;;;;;12.20;42.40;;;;;;21253729;27;20288;-62
2023/05/17 06:50:37;;;;;;;;;;;12.50;41.50;;;;;;21252856;27;19992;-62
2023/05/17 07:00:38;;;;;;;;;;;13.10;39.20;;;;;;21253166;27;20010;-60
2023/05/17 07:10:38;;;;;;;;;;;13.50;38.00;;;;;;21251339;27;19930;-60
2023/05/17 07:20:39;;;;;;;;;;;13.90;36.60;;;;;;21251228;27;20396;-61
2023/05/17 07:30:40;;;;;;;;;;;14.30;35.90;;;;;;21251143;27;19993;-60
2023/05/17 07:40:40;;;;;;;;;;;14.20;36.20;;;;;;21250500;27;20010;-59
2023/05/17 07:50:42;;;;;;;;;;;14.50;36.00;;;;;;21249818;27;20328;-60
2023/05/17 08:00:43;;;;;;;;;;;14.80;35.30;;;;;;21248050;27;19924;-56
2023/05/17 08:10:43;;;;;;;;;;;15.90;34.60;;;;;;21247206;28;19970;-56
2023/05/17 08:20:45;;;;;;;;;;;16.50;33.50;;;;;;21246534;28;20295;-54
2023/05/17 08:30:46;;;;;;;;;;;16.60;34.70;;;;;;21247574;28;20330;-56
2023/05/17 08:40:53;;;;;;;;;;;16.70;32.10;;;;;;21246130;28;19946;-57
2023/05/17 08:50:54;;;;;;;;;;;16.70;33.20;;;;;;21247128;28;19923;-59
2023/05/17 09:00:56;;;;;;;;;;;16.70;32.00;;;;;;21246480;28;19975;-57
2023/05/17 09:10:58;;;;;;;;;;;16.70;32.30;;;;;;21257633;27;20423;-59
2023/05/17 09:21:03;;;;;;;;;;;17.10;32.10;;;;;;21260969;27;20415;-54
2023/05/17 09:31:04;;;;;;;;;;;17.10;31.50;;;;;;21258155;27;19929;-58
2023/05/17 09:41:07;;;;;;;;;;;17.20;31.60;;;;;;21258130;27;20701;-57
2023/05/17 09:51:08;;;;;;;;;;;17.50;34.40;;;;;;21258378;27;19924;-58
2023/05/17 10:01:10;;;;;;;;;;;17.80;30.20;;;;;;21258108;27;20316;-57
2023/05/17 10:11:10;;;;;;;;;;;17.90;30.60;;;;;;21257353;27;19930;-58
2023/05/17 10:21:11;;;;;;;;;;;18.10;30.30;;;;;;21254503;27;20006;-57
2023/05/17 10:31:12;;;;;;;;;;;18.40;29.10;;;;;;21254984;27;19984;-58
2023/05/17 10:41:13;;;;;;;;;;;18.50;28.50;;;;;;21254266;27;19931;-59
2023/05/17 10:51:17;;;;;;;;;;;18.70;28.00;;;;;;21252789;27;20391;-59
2023/05/17 11:01:37;;;;;;;;;;;18.70;27.40;;;;;;21252597;27;20420;-58
2023/05/17 11:11:57;;;;;;;;;;;18.90;27.70;;;;;;21252249;27;19924;-58
2023/05/17 11:21:58;;;;;;;;;;;19.20;26.90;;;;;;21250477;27;19924;-57
2023/05/17 11:32:04;;;;;;;;;;;19.30;26.80;;;;;;21250173;27;19963;-60
2023/05/17 11:42:05;;;;;;;;;;;19.60;26.00;;;;;;21250285;27;20299;-57
2023/05/17 11:52:06;;;;;;;;;;;19.80;25.70;;;;;;21248573;27;19979;-58
2023/05/17 12:02:07;;;;;;;;;;;20.00;25.20;;;;;;21249340;27;19984;-59
2023/05/17 12:12:07;;;;;;;;;;;20.30;24.40;;;;;;21247964;27;19972;-57
2023/05/17 12:22:11;;;;;;;;;;;20.50;24.00;;;;;;21247029;28;19958;-58
2023/05/17 12:32:11;;;;;;;;;;;20.70;23.10;;;;;;21247434;28;20376;-59
2023/05/17 12:42:12;;;;;;;;;;;20.90;22.60;;;;;;21253470;27;20296;-58
2023/05/17 12:52:13;;;;;;;;;;;21.20;21.80;;;;;;21263363;27;19930;-59
2023/05/17 13:02:14;;;;;;;;;;;21.50;20.20;;;;;;21263088;27;19924;-59
2023/05/17 13:12:22;;;;;;;;;;;21.70;19.90;;;;;;21229941;27;20336;-58
2023/05/17 13:22:24;;;;;;;;;;;22.10;18.90;;;;;;21160031;27;19939;-62
2023/05/17 13:32:24;;;;;;;;;;;22.30;18.00;;;;;;21165046;27;19923;-60
2023/05/17 13:42:25;;;;;;;;;;;22.60;16.90;;;;;;21198960;27;20444;-61
2023/05/17 13:52:26;;;;;;;;;;;22.70;17.80;;;;;;21208994;27;19931;-58
2023/05/17 14:02:26;;;;;;;;;;;22.70;17.90;;;;;;21208063;27;19928;-58
2023/05/17 14:12:27;;;;;;;;;;;22.80;17.60;;;;;;21175500;27;19970;-59
2023/05/17 14:22:28;;;;;;;;;;;22.90;16.60;;;;;;21167204;27;19967;-62
2023/05/17 14:32:28;;;;;;;;;;;23.10;16.50;;;;;;21157453;27;19935;-59
2023/05/17 14:42:30;;;;;;;;;;;23.10;16.30;;;;;;21161639;28;19930;-58
2023/05/17 14:52:30;;;;;;;;;;;23.00;16.90;;;;;;21160195;28;20018;-60
2023/05/17 15:02:31;;;;;;;;;;;23.10;16.60;;;;;;21163248;28;19974;-59
2023/05/17 15:12:32;;;;;;;;;;;23.20;16.70;;;;;;21167949;28;19924;-59
2023/05/17 15:22:32;;;;;;;;;;;23.10;17.10;;;;;;21166554;28;20007;-58
2023/05/17 15:32:33;;;;;;;;;;;23.10;16.80;;;;;;21165940;28;19924;-59
2023/05/17 15:42:34;;;;;;;;;;;23.20;16.40;;;;;;21165841;28;20020;-59
2023/05/17 15:52:35;;;;;;;;;;;23.20;16.80;;;;;;21162868;28;19923;-58
2023/05/17 16:02:35;;;;;;;;;;;23.20;17.00;;;;;;21163430;28;20333;-59
2023/05/17 16:12:36;;;;;;;;;;;23.30;16.20;;;;;;21163595;28;19927;-59
2023/05/17 16:22:44;;;;;;;;;;;23.20;16.20;;;;;;21178361;28;19924;-58
2023/05/17 16:32:46;;;;;;;;;;;23.30;16.70;;;;;;21180756;28;19971;-58
2023/05/17 16:42:47;;;;;;;;;;;23.30;16.90;;;;;;21179304;28;19923;-58
2023/05/17 16:52:47;;;;;;;;;;;23.40;16.20;;;;;;21177032;28;20031;-59
2023/05/17 17:02:48;;;;;;;;;;;23.20;16.20;;;;;;21176422;28;19976;-59
2023/05/17 17:12:49;;;;;;;;;;;23.20;16.20;;;;;;21175445;28;19968;-60
2023/05/17 17:22:50;;;;;;;;;;;23.10;15.90;;;;;;21173649;28;19923;-60
2023/05/17 17:32:50;;;;;;;;;;;23.00;15.60;;;;;;21174451;28;19923;-60
2023/05/17 17:42:51;;;;;;;;;;;23.00;15.50;;;;;;21174467;28;19947;-60
2023/05/17 17:52:51;;;;;;;;;;;22.80;15.70;;;;;;21172868;28;19927;-59
2023/05/17 18:02:52;;;;;;;;;;;22.70;15.80;;;;;;21171979;28;19954;-59
2023/05/17 18:12:53;;;;;;;;;;;22.70;16.70;;;;;;21170969;28;19966;-58
2023/05/17 18:22:53;;;;;;;;;;;22.40;17.00;;;;;;21169227;28;20060;-61
2023/05/17 18:32:54;;;;;;;;;;;22.20;17.10;;;;;;21169113;28;20007;-59
2023/05/17 18:42:55;;;;;;;;;;;22.10;17.70;;;;;;21169008;28;19924;-61
2023/05/17 18:52:55;;;;;;;;;;;21.90;18.40;;;;;;21167486;28;20295;-58
2023/05/17 19:02:57;;;;;;;;;;;21.60;18.10;;;;;;21165982;28;19928;-58
2023/05/17 19:12:57;;;;;;;;;;;21.30;18.40;;;;;;21166035;28;19931;-59
2023/05/17 19:22:59;;;;;;;;;;;21.10;18.80;;;;;;21166185;28;19924;-60
2023/05/17 19:33:00;;;;;;;;;;;21.10;18.60;;;;;;21165203;28;20036;-60
2023/05/17 19:43:01;;;;;;;;;;;20.70;19.60;;;;;;21163345;28;19928;-58
2023/05/17 19:53:01;;;;;;;;;;;20.50;20.30;;;;;;21162767;28;19924;-57
2023/05/17 20:03:02;;;;;;;;;;;20.30;21.50;;;;;;21160677;28;19976;-60
2023/05/17 20:13:02;;;;;;;;;;;20.00;22.60;;;;;;21161993;28;20497;-58
2023/05/17 20:23:03;;;;;;;;;;;19.70;23.50;;;;;;21160302;28;19923;-59
2023/05/17 20:33:04;;;;;;;;;;;19.50;24.60;;;;;;21162139;28;20380;-59
2023/05/17 20:43:06;;;;;;;;;;;19.20;26.00;;;;;;21162167;28;19924;-58
2023/05/17 20:53:09;;;;;;;;;;;18.90;26.60;;;;;;21160457;28;20321;-58
2023/05/17 21:03:10;;;;;;;;;;;18.70;27.40;;;;;;21166234;28;19924;-59
2023/05/17 21:13:11;;;;;;;;;;;18.40;27.60;;;;;;21175281;28;20307;-59
2023/05/17 21:23:12;;;;;;;;;;;18.20;28.70;;;;;;21173425;28;20292;-59
2023/05/17 21:33:13;;;;;;;;;;;17.90;29.40;;;;;;21174399;28;19965;-58
2023/05/17 21:43:13;;;;;;;;;;;17.70;30.00;;;;;;21174616;28;19997;-58
2023/05/17 21:53:14;;;;;;;;;;;17.20;31.40;;;;;;21172867;28;19984;-60
2023/05/17 22:03:15;;;;;;;;;;;17.00;32.70;;;;;;21170820;28;19974;-60
2023/05/17 22:13:16;;;;;;;;;;;16.60;32.80;;;;;;21171144;28;20403;-58
2023/05/17 22:23:20;;;;;;;;;;;16.40;31.90;;;;;;21169225;28;19931;-59
2023/05/17 22:33:21;;;;;;;;;;;16.00;32.90;;;;;;21169679;28;19924;-59
2023/05/17 22:43:21;;;;;;;;;;;15.70;33.80;;;;;;21168627;28;19924;-58
2023/05/17 22:53:22;;;;;;;;;;;15.50;34.10;;;;;;21168228;28;19923;-58
2023/05/17 23:03:23;;;;;;;;;;;15.20;35.00;;;;;;21167523;28;19930;-59
2023/05/17 23:13:24;;;;;;;;;;;15.00;35.20;;;;;;21166526;28;19923;-57
2023/05/17 23:23:25;;;;;;;;;;;14.80;35.40;;;;;;21164252;28;19930;-59
2023/05/17 23:33:29;;;;;;;;;;;14.70;35.90;;;;;;21164381;28;19923;-59
2023/05/17 23:43:30;;;;;;;;;;;14.60;36.60;;;;;;21165812;28;19930;-59
2023/05/17 23:53:32;;;;;;;;;;;14.50;37.20;;;;;;21165253;28;19985;-58
